Type Rating

Flugschule

Flugschule

Wir bieten eine professionelle und umfassende Ausbildung.

Flugwetter Augsburg

[Quelle: ADDS]
METAR
EDMA 250950Z VRB01KT CAVOK 12/04 Q1031 =
EDMA 250800Z 2509/2518 VRB03KT CAVOK
TAF
EDMA 250800Z 2509/2518 VRB03KT CAVOK =

Kontakt

Type Rating

aäb cde fgh ijk lmn oöp qrsß tuü vwx yz AÄBC DEF GHI JKL MNO ÖPQ RST UÜV WXYZ ! "§ $%& /() =? * '<>

|; ²³~ @`´ ©«» ¼× {} aäb cde fgh ijk lmn oöp qrsß tuü vwx yz AÄBC DEF GHI JKL MNO ÖPQ RST UÜV WXYZ ! "§ $%& /() =? * '<>

|; ²³~ @`´ ©«» ¼× {} aäb cde fgh ijk lmn oöp qrsß tuü vwx yz AÄBC DEF GHI JKL MNO ÖPQ RST UÜV WXYZ ! "§ $%& /() =? * '<>

|; ²³~ @`´ ©«» ¼× {} aäb cde fgh ijk lmn oöp qrsß tuü vwx yz AÄBC DEF GHI JKL MNO ÖPQ RST UÜV WXYZ ! "§ $%& /() =? * '<>

|; ²³~ @`´ ©«» ¼× {} aäb cde fgh ijk lmn oöp qrsß tuü vwx yz AÄBC DEF GHI JKL MNO ÖPQ RST UÜV WXYZ ! "§ $%& /() =? * '<> |; ²³~ @`´ ©«» ¼× {} aäb cde fgh ijk lmn oöp qrsß tuü vwx yz AÄBC DEF GHI JKL MNO ÖPQ RST UÜV WXYZ ! "§ $%& /() =? * '<> |; ²³~ @`´ ©«» ¼× {}aäb cde fgh ijk lmn oöp qrsß tuü vwx yz AÄBC DEF GHI JKL MNO ÖPQ RST UÜV WXYZ ! "§